Kingston, New Hampshire
Current Conditions -  °F | °C
As of 2:58 AM on Thursday 29 Jan 2015 (Local Time) from KPSM Reporting Station
Clear Clear  
Wind Chill:   Ceiling: Unl
Heat Index:   Visibility: 10mi
Dew Point:   Wind: 2mph
Humidity: 67%   Direction: 280°W
Pressure: 30.25"   Gusts: NA
Location:  42.94°N, 71.05°W
Report Text: KPSM 290758Z 28002KT 10SM CLR M13/M18 A3025 RMK AO2A SLP249 T11291178
Loading
Personal Weather Stations






























Interactive Weather Map New forecast layout! Learn more

10-Day Weather Forecast

Advertisements
Track Severe Weather on mobile